createdAt,value
2023-09-21T00:01:46.683Z,2.88
2023-09-21T00:04:17.563Z,2.85
2023-09-21T00:06:47.285Z,2.90
2023-09-21T00:09:16.807Z,2.80
2023-09-21T00:11:46.322Z,2.50
2023-09-21T00:14:15.817Z,2.63
2023-09-21T00:16:45.747Z,2.65
2023-09-21T00:19:17.454Z,3.15
2023-09-21T00:21:47.436Z,3.30
2023-09-21T00:24:17.111Z,2.38
2023-09-21T00:26:50.649Z,2.60
2023-09-21T00:29:20.826Z,3.13
2023-09-21T00:31:50.745Z,2.63
2023-09-21T00:34:21.778Z,2.42
2023-09-21T00:36:51.385Z,2.72
2023-09-21T00:39:21.263Z,2.53
2023-09-21T00:41:50.724Z,2.42
2023-09-21T00:47:11.261Z,2.20
2023-09-21T00:49:41.326Z,2.47
2023-09-21T00:52:13.459Z,2.67
2023-09-21T00:54:44.176Z,2.50
2023-09-21T00:57:14.784Z,3.00
2023-09-21T00:59:47.277Z,2.10
2023-09-21T01:02:18.359Z,2.15
2023-09-21T01:04:47.912Z,2.50
2023-09-21T01:07:23.709Z,2.63
2023-09-21T01:09:54.175Z,2.58
2023-09-21T01:12:24.080Z,2.15
2023-09-21T01:15:07.380Z,1.90
2023-09-21T01:17:40.697Z,2.17
2023-09-21T01:20:29.110Z,2.13
2023-09-21T01:23:14.059Z,2.15
2023-09-21T01:25:47.543Z,2.10
2023-09-21T01:28:20.842Z,2.00
2023-09-21T01:30:52.802Z,2.38
2023-09-21T01:33:24.589Z,2.10
2023-09-21T01:35:54.650Z,2.78
2023-09-21T01:38:28.699Z,2.40
2023-09-21T01:41:00.972Z,2.72
2023-09-21T01:43:30.700Z,2.33
2023-09-21T01:46:00.249Z,2.30
2023-09-21T01:48:29.911Z,2.30
2023-09-21T01:51:00.854Z,2.35
2023-09-21T01:53:30.345Z,2.20
2023-09-21T01:56:01.426Z,1.95
2023-09-21T01:58:30.820Z,2.45
2023-09-21T02:01:01.082Z,1.98
2023-09-21T02:03:32.990Z,2.05
2023-09-21T02:06:04.240Z,1.58
2023-09-21T02:08:34.850Z,2.05
2023-09-21T02:11:07.097Z,2.35
2023-09-21T02:13:36.505Z,2.60
2023-09-21T02:16:06.325Z,2.30
2023-09-21T02:18:36.086Z,2.22
2023-09-21T02:21:10.122Z,2.20
2023-09-21T02:23:40.174Z,2.40
2023-09-21T02:26:11.823Z,2.35
2023-09-21T02:28:41.468Z,2.10
2023-09-21T02:31:13.536Z,1.83
2023-09-21T02:33:44.724Z,2.10
2023-09-21T02:36:21.693Z,2.28
2023-09-21T02:38:51.578Z,2.10
2023-09-21T02:41:24.449Z,2.42
2023-09-21T02:43:55.461Z,1.83
2023-09-21T02:46:24.913Z,2.30
2023-09-21T02:48:54.448Z,1.80
2023-09-21T02:51:24.384Z,2.03
2023-09-21T02:53:56.027Z,2.17
2023-09-21T02:56:26.948Z,2.33
2023-09-21T02:58:56.416Z,1.80
2023-09-21T03:01:26.784Z,1.98
2023-09-21T03:03:56.773Z,2.30
2023-09-21T03:06:26.440Z,1.90
2023-09-21T03:08:57.350Z,2.20
2023-09-21T03:11:28.274Z,2.28
2023-09-21T03:13:57.924Z,2.03
2023-09-21T03:16:29.845Z,2.58
2023-09-21T03:18:59.489Z,2.60
2023-09-21T03:21:29.137Z,2.05
2023-09-21T03:23:58.677Z,2.33
2023-09-21T03:26:30.307Z,3.00
2023-09-21T03:29:00.009Z,2.30
2023-09-21T03:31:29.922Z,2.40
2023-09-21T03:34:04.290Z,2.38
2023-09-21T03:36:37.103Z,2.70
2023-09-21T03:39:11.219Z,2.42
2023-09-21T03:41:42.225Z,2.80
2023-09-21T03:44:11.762Z,2.38
2023-09-21T03:48:11.185Z,2.15
2023-09-21T03:50:42.502Z,2.58
2023-09-21T03:53:12.566Z,1.80
2023-09-21T03:55:42.986Z,2.42
2023-09-21T03:58:13.771Z,2.55
2023-09-21T04:00:43.160Z,2.45
2023-09-21T04:03:14.176Z,2.17
2023-09-21T04:05:44.245Z,2.55
2023-09-21T04:08:13.981Z,2.15
2023-09-21T04:10:43.445Z,2.10
2023-09-21T04:13:12.947Z,3.00
2023-09-21T04:15:43.074Z,2.35
2023-09-21T04:18:13.915Z,1.98
2023-09-21T04:20:46.252Z,2.63
2023-09-21T04:23:15.849Z,2.25
2023-09-21T04:25:48.737Z,2.25
2023-09-21T04:28:18.142Z,2.38
2023-09-21T04:30:48.706Z,3.00
2023-09-21T04:33:19.680Z,2.55
2023-09-21T04:35:50.164Z,2.70
2023-09-21T04:38:19.665Z,2.33
2023-09-21T04:40:51.548Z,3.60
2023-09-21T04:43:21.837Z,4.88
2023-09-21T04:45:51.592Z,3.10
2023-09-21T04:48:22.657Z,2.50
2023-09-21T04:50:52.226Z,7.53
2023-09-21T04:53:22.102Z,5.65
2023-09-21T04:55:51.610Z,3.85
2023-09-21T04:58:21.620Z,3.28
2023-09-21T05:00:51.261Z,3.17
2023-09-21T05:03:22.361Z,3.03
2023-09-21T05:05:54.308Z,2.85
2023-09-21T05:08:23.724Z,3.33
2023-09-21T05:10:53.216Z,2.72
2023-09-21T05:13:23.400Z,2.72
2023-09-21T05:15:53.082Z,3.60
2023-09-21T05:18:24.153Z,2.95
2023-09-21T05:20:53.848Z,2.70
2023-09-21T05:23:23.401Z,3.20
2023-09-21T05:25:53.040Z,2.95
2023-09-21T05:28:22.944Z,3.33
2023-09-21T05:30:52.335Z,3.88
2023-09-21T05:33:23.400Z,3.92
2023-09-21T05:35:56.975Z,3.90
2023-09-21T05:38:26.721Z,3.78
2023-09-21T05:40:56.205Z,3.30
2023-09-21T05:43:27.092Z,3.08
2023-09-21T05:45:57.892Z,3.67
2023-09-21T05:48:28.908Z,3.92
2023-09-21T05:50:58.652Z,3.75
2023-09-21T05:53:28.191Z,3.70
2023-09-21T05:55:59.299Z,3.60
2023-09-21T05:58:31.268Z,3.63
2023-09-21T06:01:01.735Z,3.45
2023-09-21T06:03:32.883Z,3.20
2023-09-21T06:06:02.477Z,3.10
2023-09-21T06:08:32.034Z,3.75
2023-09-21T06:11:03.623Z,2.95
2023-09-21T06:13:34.090Z,2.87
2023-09-21T06:16:04.397Z,2.45
2023-09-21T06:18:35.277Z,2.20
2023-09-21T06:21:07.889Z,2.20
2023-09-21T06:23:37.323Z,2.03
2023-09-21T06:26:06.746Z,2.05
2023-09-21T06:28:36.285Z,2.03
2023-09-21T06:31:07.164Z,1.98
2023-09-21T06:33:38.217Z,1.83
2023-09-21T06:36:16.451Z,1.48
2023-09-21T06:38:46.090Z,1.70
2023-09-21T06:41:16.129Z,1.80
2023-09-21T06:43:45.747Z,1.70
2023-09-21T06:48:12.660Z,1.95
2023-09-21T06:50:42.331Z,1.50
2023-09-21T06:53:12.137Z,2.40
2023-09-21T06:55:41.972Z,1.65
2023-09-21T06:58:11.631Z,1.88
2023-09-21T07:00:41.124Z,1.65
2023-09-21T07:03:13.935Z,2.00
2023-09-21T07:05:45.239Z,2.50
2023-09-21T07:08:15.181Z,1.80
2023-09-21T07:10:45.560Z,1.88
2023-09-21T07:13:15.270Z,1.90
2023-09-21T07:15:44.735Z,1.85
2023-09-21T07:18:16.030Z,1.88
2023-09-21T07:20:45.922Z,1.80
2023-09-21T07:23:15.555Z,2.00
2023-09-21T07:25:45.084Z,1.80
2023-09-21T07:28:14.589Z,1.77
2023-09-21T07:30:44.188Z,2.15
2023-09-21T07:33:15.334Z,2.03
2023-09-21T07:35:45.006Z,1.80
2023-09-21T07:38:14.690Z,1.90
2023-09-21T07:40:44.226Z,2.03
2023-09-21T07:43:14.243Z,2.15
2023-09-21T07:45:44.092Z,2.25
2023-09-21T07:48:17.462Z,2.53
2023-09-21T07:50:47.417Z,1.80
2023-09-21T07:53:17.361Z,2.03
2023-09-21T07:55:46.924Z,1.60
2023-09-21T07:58:16.789Z,2.10
2023-09-21T08:00:46.286Z,2.17
2023-09-21T08:03:17.973Z,1.48
2023-09-21T08:05:49.452Z,1.85
2023-09-21T08:08:19.425Z,1.97
2023-09-21T08:10:50.246Z,1.90
2023-09-21T08:13:20.307Z,1.92
2023-09-21T08:15:49.966Z,3.42
2023-09-21T08:18:21.174Z,2.40
2023-09-21T08:20:50.996Z,2.07
2023-09-21T08:23:21.808Z,1.80
2023-09-21T08:25:51.308Z,2.25
2023-09-21T08:28:20.786Z,2.15
2023-09-21T08:30:51.324Z,2.22
2023-09-21T08:33:22.549Z,2.25
2023-09-21T08:35:52.172Z,1.75
2023-09-21T08:38:21.585Z,2.60
2023-09-21T08:40:55.646Z,2.05
2023-09-21T08:43:27.870Z,2.08
2023-09-21T08:45:58.424Z,2.30
2023-09-21T08:48:30.009Z,2.30
2023-09-21T08:51:01.464Z,2.40
2023-09-21T08:53:31.173Z,2.13
2023-09-21T08:56:01.439Z,1.98
2023-09-21T08:58:35.623Z,2.25
2023-09-21T09:01:05.106Z,2.00
2023-09-21T09:03:37.899Z,2.30
2023-09-21T09:06:07.657Z,2.80
2023-09-21T09:08:37.255Z,2.25
2023-09-21T09:11:06.715Z,2.53
2023-09-21T09:13:39.306Z,2.00
2023-09-21T09:16:12.719Z,2.47
2023-09-21T09:18:43.862Z,2.03
2023-09-21T09:21:16.173Z,2.30
2023-09-21T09:26:17.421Z,2.35
2023-09-21T09:28:47.402Z,2.55
2023-09-21T09:31:19.476Z,2.05
2023-09-21T09:36:23.408Z,2.20
2023-09-21T09:38:53.784Z,2.63
2023-09-21T09:41:24.051Z,2.30
2023-09-21T09:44:00.208Z,2.42
2023-09-21T09:48:15.599Z,2.35
2023-09-21T09:50:45.579Z,2.40
2023-09-21T09:53:15.235Z,3.00
2023-09-21T09:55:46.353Z,2.75
2023-09-21T09:58:17.498Z,2.40
2023-09-21T10:00:47.215Z,2.58
2023-09-21T10:03:19.298Z,2.20
2023-09-21T10:05:49.289Z,2.47
2023-09-21T10:08:19.811Z,2.65
2023-09-21T10:10:56.110Z,2.25
2023-09-21T10:13:29.370Z,2.42
2023-09-21T10:16:03.256Z,2.13
2023-09-21T10:18:38.167Z,2.33
2023-09-21T10:21:24.789Z,2.30
2023-09-21T10:24:09.289Z,2.60
2023-09-21T10:26:40.154Z,2.25
2023-09-21T10:29:13.514Z,2.65
2023-09-21T10:31:47.339Z,2.63
2023-09-21T10:34:22.853Z,2.38
2023-09-21T10:36:54.026Z,2.75
2023-09-21T10:39:26.804Z,2.30
2023-09-21T10:41:59.280Z,2.45
2023-09-21T10:45:09.486Z,2.35
2023-09-21T10:47:49.612Z,2.45
2023-09-21T10:50:22.931Z,2.83
2023-09-21T10:52:57.094Z,2.22
2023-09-21T10:55:26.747Z,2.42
2023-09-21T10:58:02.188Z,2.92
2023-09-21T11:00:31.589Z,2.55
2023-09-21T11:03:01.460Z,2.90
2023-09-21T11:05:32.935Z,2.47
2023-09-21T11:08:04.136Z,2.55
2023-09-21T11:10:33.548Z,2.90
2023-09-21T11:13:02.977Z,2.38
2023-09-21T11:15:33.834Z,3.00
2023-09-21T11:18:03.722Z,2.72
2023-09-21T11:20:35.847Z,3.35
2023-09-21T11:23:07.461Z,2.40
2023-09-21T11:25:37.185Z,2.60
2023-09-21T11:28:08.232Z,2.90
2023-09-21T11:30:38.045Z,2.90
2023-09-21T11:33:10.383Z,2.63
2023-09-21T11:35:41.440Z,2.88
2023-09-21T11:38:13.344Z,2.83
2023-09-21T11:40:42.773Z,2.70
2023-09-21T11:43:18.287Z,2.53
2023-09-21T11:45:50.233Z,3.00
2023-09-21T11:48:19.968Z,2.78
2023-09-21T11:50:51.302Z,3.20
2023-09-21T11:53:21.235Z,3.13
2023-09-21T11:55:50.786Z,2.55
2023-09-21T11:58:21.466Z,2.70
2023-09-21T12:00:53.489Z,2.90
2023-09-21T12:03:26.056Z,2.45
2023-09-21T12:05:58.347Z,2.60
2023-09-21T12:10:59.000Z,3.20
2023-09-21T12:13:28.737Z,2.90
2023-09-21T12:16:00.547Z,2.70
2023-09-21T12:18:31.724Z,2.60
2023-09-21T12:21:04.584Z,3.03
2023-09-21T12:23:36.587Z,2.45
2023-09-21T12:26:06.572Z,2.60
2023-09-21T12:28:37.884Z,2.42
2023-09-21T12:31:08.967Z,2.50
2023-09-21T12:33:43.060Z,2.13
2023-09-21T12:36:21.146Z,2.50
2023-09-21T12:38:57.081Z,2.28
2023-09-21T12:41:27.379Z,2.88
2023-09-21T12:43:57.661Z,2.53
2023-09-21T12:48:11.357Z,2.88
2023-09-21T12:50:41.025Z,2.78
2023-09-21T12:53:12.259Z,2.75
2023-09-21T12:55:42.446Z,2.92
2023-09-21T12:58:13.483Z,2.95
2023-09-21T13:00:43.746Z,3.00
2023-09-21T13:03:15.559Z,2.67
2023-09-21T13:05:47.343Z,2.53
2023-09-21T13:08:17.536Z,2.30
2023-09-21T13:10:47.047Z,2.25
2023-09-21T13:13:17.284Z,2.80
2023-09-21T13:15:47.182Z,2.40
2023-09-21T13:18:18.436Z,2.25
2023-09-21T13:20:48.109Z,3.33
2023-09-21T13:23:17.609Z,2.33
2023-09-21T13:25:46.993Z,2.58
2023-09-21T13:28:16.844Z,2.65
2023-09-21T13:30:49.137Z,2.53
2023-09-21T13:33:20.371Z,3.08
2023-09-21T13:35:50.241Z,2.25
2023-09-21T13:38:20.317Z,2.78
2023-09-21T13:40:49.895Z,2.90
2023-09-21T13:43:21.246Z,2.67
2023-09-21T13:45:50.742Z,2.20
2023-09-21T13:48:23.684Z,2.65
2023-09-21T13:50:53.731Z,3.90
2023-09-21T13:53:23.280Z,3.20
2023-09-21T13:55:53.922Z,2.45
2023-09-21T13:58:23.440Z,2.63
2023-09-21T14:00:54.102Z,2.55
2023-09-21T14:03:26.063Z,2.40
2023-09-21T14:08:25.484Z,2.55
2023-09-21T14:10:54.920Z,2.58
2023-09-21T14:13:24.428Z,3.33
2023-09-21T14:15:53.987Z,2.20
2023-09-21T14:18:25.025Z,2.88
2023-09-21T14:20:55.395Z,2.80
2023-09-21T14:23:24.986Z,2.30
2023-09-21T14:25:54.390Z,2.55
2023-09-21T14:28:24.706Z,2.85
2023-09-21T14:30:55.125Z,3.17
2023-09-21T14:33:26.137Z,3.05
2023-09-21T14:35:55.699Z,2.88
2023-09-21T14:38:25.232Z,2.70
2023-09-21T14:40:54.715Z,2.53
2023-09-21T14:43:24.340Z,2.70
2023-09-21T14:45:54.215Z,2.80
2023-09-21T14:48:25.449Z,2.55
2023-09-21T14:50:55.279Z,2.67
2023-09-21T14:53:26.975Z,2.72
2023-09-21T14:55:57.262Z,2.88
2023-09-21T14:58:27.329Z,2.60
2023-09-21T15:00:56.870Z,3.60
2023-09-21T15:03:29.009Z,2.72
2023-09-21T15:05:58.560Z,3.10
2023-09-21T15:08:28.064Z,3.10
2023-09-21T15:10:57.533Z,3.33
2023-09-21T15:13:27.530Z,3.22
2023-09-21T15:15:57.519Z,2.90
2023-09-21T15:18:28.846Z,2.97
2023-09-21T15:20:58.410Z,2.60
2023-09-21T15:23:27.922Z,2.85
2023-09-21T15:28:46.945Z,2.88
2023-09-21T15:31:18.143Z,2.60
2023-09-21T15:33:49.265Z,2.73
2023-09-21T15:36:19.148Z,3.40
2023-09-21T15:38:49.010Z,3.08
2023-09-21T15:41:18.627Z,2.70
2023-09-21T15:43:48.280Z,2.65
2023-09-21T15:48:10.798Z,2.90
2023-09-21T15:50:42.101Z,2.65
2023-09-21T15:53:11.848Z,3.10
2023-09-21T15:55:41.837Z,2.85
2023-09-21T15:58:11.708Z,3.10
2023-09-21T16:00:41.324Z,3.50
2023-09-21T16:03:12.456Z,2.85
2023-09-21T16:05:41.977Z,3.27
2023-09-21T16:08:11.509Z,3.47
2023-09-21T16:10:41.114Z,2.92
2023-09-21T16:13:11.591Z,3.28
2023-09-21T16:15:41.368Z,3.28
2023-09-21T16:18:12.597Z,3.55
2023-09-21T16:20:42.420Z,2.63
2023-09-21T16:23:11.928Z,2.63
2023-09-21T16:25:41.448Z,3.40
2023-09-21T16:28:12.785Z,3.13
2023-09-21T16:30:42.484Z,3.50
2023-09-21T16:33:13.723Z,3.10
2023-09-21T16:35:43.159Z,3.20
2023-09-21T16:38:13.055Z,3.17
2023-09-21T16:40:42.521Z,3.67
2023-09-21T16:43:12.113Z,3.40
2023-09-21T16:45:41.776Z,3.22
2023-09-21T16:48:12.771Z,3.35
2023-09-21T16:50:42.418Z,3.47
2023-09-21T16:53:11.831Z,3.80
2023-09-21T16:55:41.508Z,3.58
2023-09-21T16:58:11.383Z,3.83
2023-09-21T17:00:41.015Z,3.78
2023-09-21T17:03:13.033Z,4.13
2023-09-21T17:08:12.898Z,3.90
2023-09-21T17:10:42.475Z,3.83
2023-09-21T17:13:11.945Z,3.60
2023-09-21T17:15:41.521Z,4.35
2023-09-21T17:18:12.609Z,4.05
2023-09-21T17:20:42.156Z,4.65
2023-09-21T17:23:12.137Z,4.03
2023-09-21T17:25:41.495Z,4.50
2023-09-21T17:28:10.930Z,4.25
2023-09-21T17:30:40.549Z,4.40
2023-09-21T17:33:11.777Z,3.80
2023-09-21T17:35:41.688Z,3.47
2023-09-21T17:38:12.144Z,3.65
2023-09-21T17:40:42.071Z,3.92
2023-09-21T17:43:11.616Z,3.95
2023-09-21T17:45:41.374Z,4.00
2023-09-21T17:48:28.202Z,4.15
2023-09-21T17:53:31.861Z,4.15
2023-09-21T17:56:01.331Z,3.92
2023-09-21T17:58:30.836Z,3.88
2023-09-21T18:01:00.467Z,3.65
2023-09-21T18:03:31.781Z,3.55
2023-09-21T18:06:01.509Z,3.77
2023-09-21T18:08:31.014Z,4.10
2023-09-21T18:11:03.548Z,3.97
2023-09-21T18:13:33.608Z,4.10
2023-09-21T18:16:03.256Z,4.00
2023-09-21T18:18:34.788Z,3.58
2023-09-21T18:21:05.048Z,4.67
2023-09-21T18:23:34.653Z,3.97
2023-09-21T18:26:04.362Z,4.22
2023-09-21T18:28:33.911Z,4.20
2023-09-21T18:31:03.726Z,3.70
2023-09-21T18:33:34.782Z,4.05
2023-09-21T18:36:04.619Z,4.00
2023-09-21T18:38:34.387Z,4.28
2023-09-21T18:41:04.049Z,3.80
2023-09-21T18:43:34.442Z,3.75
2023-09-21T18:48:11.371Z,4.00
2023-09-21T18:50:43.153Z,3.67
2023-09-21T18:53:13.288Z,4.30
2023-09-21T18:55:43.184Z,3.67
2023-09-21T18:58:13.010Z,3.80
2023-09-21T19:00:42.620Z,3.80
2023-09-21T19:03:13.802Z,3.97
2023-09-21T19:05:43.346Z,4.32
2023-09-21T19:08:12.697Z,3.97
2023-09-21T19:10:42.654Z,3.55
2023-09-21T19:13:12.632Z,4.40
2023-09-21T19:15:42.128Z,4.25
2023-09-21T19:18:13.145Z,3.67
2023-09-21T19:20:42.654Z,3.53
2023-09-21T19:23:12.642Z,3.63
2023-09-21T19:25:42.141Z,4.03
2023-09-21T19:28:11.563Z,4.25
2023-09-21T19:30:41.149Z,3.97
2023-09-21T19:33:10.727Z,3.83
2023-09-21T19:35:41.972Z,3.47
2023-09-21T19:38:11.544Z,3.67
2023-09-21T19:40:41.397Z,3.67
2023-09-21T19:43:10.976Z,3.50
2023-09-21T19:45:40.464Z,3.55
2023-09-21T19:48:10.574Z,3.45
2023-09-21T19:50:42.549Z,3.80
2023-09-21T19:53:12.947Z,3.50
2023-09-21T19:55:42.768Z,4.00
2023-09-21T19:58:12.381Z,4.00
2023-09-21T20:00:43.647Z,3.90
2023-09-21T20:03:17.481Z,3.53
2023-09-21T20:05:48.713Z,3.58
2023-09-21T20:08:18.264Z,3.60
2023-09-21T20:10:48.198Z,3.80
2023-09-21T20:13:17.780Z,3.60
2023-09-21T20:15:47.325Z,3.90
2023-09-21T20:18:16.904Z,3.22
2023-09-21T20:20:47.773Z,3.80
2023-09-21T20:23:17.363Z,3.28
2023-09-21T20:25:46.993Z,3.83
2023-09-21T20:28:16.584Z,3.58
2023-09-21T20:30:49.153Z,3.10
2023-09-21T20:33:19.220Z,3.70
2023-09-21T20:35:50.207Z,3.63
2023-09-21T20:38:19.913Z,3.25
2023-09-21T20:40:49.503Z,3.88
2023-09-21T20:43:18.924Z,3.55
2023-09-21T20:45:48.490Z,3.03
2023-09-21T20:48:17.995Z,3.47
2023-09-21T20:50:49.062Z,3.03
2023-09-21T20:53:18.489Z,3.25
2023-09-21T20:55:48.881Z,4.00
2023-09-21T20:58:18.802Z,3.70
2023-09-21T21:00:48.431Z,3.53
2023-09-21T21:03:18.019Z,3.53
2023-09-21T21:05:49.519Z,4.05
2023-09-21T21:08:19.074Z,3.25
2023-09-21T21:10:48.863Z,3.55
2023-09-21T21:13:18.422Z,3.67
2023-09-21T21:15:48.040Z,3.63
2023-09-21T21:18:17.712Z,3.92
2023-09-21T21:20:49.190Z,3.75
2023-09-21T21:23:18.616Z,3.27
2023-09-21T21:25:48.105Z,3.53
2023-09-21T21:28:17.632Z,3.58
2023-09-21T21:30:47.959Z,3.38
2023-09-21T21:33:17.485Z,3.72
2023-09-21T21:35:48.403Z,3.78
2023-09-21T21:38:18.317Z,3.30
2023-09-21T21:40:48.601Z,4.60
2023-09-21T21:43:18.021Z,3.05
2023-09-21T21:48:10.408Z,3.08
2023-09-21T21:50:40.442Z,3.40
2023-09-21T21:53:09.947Z,3.55
2023-09-21T21:55:40.143Z,3.42
2023-09-21T21:58:09.626Z,3.08
2023-09-21T22:00:40.998Z,3.13
2023-09-21T22:03:12.198Z,3.70
2023-09-21T22:05:42.371Z,3.88
2023-09-21T22:08:12.123Z,3.35
2023-09-21T22:10:42.989Z,3.10
2023-09-21T22:13:12.790Z,3.10
2023-09-21T22:15:42.383Z,3.35
2023-09-21T22:18:14.795Z,3.20
2023-09-21T22:20:44.333Z,3.08
2023-09-21T22:23:13.907Z,3.47
2023-09-21T22:25:43.412Z,3.15
2023-09-21T22:28:12.781Z,3.15
2023-09-21T22:30:42.406Z,3.47
2023-09-21T22:33:13.396Z,3.00
2023-09-21T22:35:43.190Z,3.72
2023-09-21T22:38:15.109Z,3.00
2023-09-21T22:40:45.099Z,3.03
2023-09-21T22:43:14.595Z,2.65
2023-09-21T22:45:44.795Z,2.97
2023-09-21T22:48:16.884Z,2.70
2023-09-21T22:50:47.389Z,2.70
2023-09-21T22:53:17.265Z,3.00
2023-09-21T22:55:46.891Z,3.40
2023-09-21T22:58:16.932Z,2.80
2023-09-21T23:00:58.346Z,2.58
2023-09-21T23:03:29.885Z,3.22
2023-09-21T23:06:09.421Z,2.83
2023-09-21T23:08:39.420Z,3.63
2023-09-21T23:11:10.896Z,3.17
2023-09-21T23:13:43.327Z,2.70
2023-09-21T23:16:13.130Z,2.85
2023-09-21T23:18:44.203Z,2.97
2023-09-21T23:21:14.167Z,2.40
2023-09-21T23:23:44.342Z,3.03
2023-09-21T23:26:14.240Z,2.78
2023-09-21T23:28:43.932Z,3.30
2023-09-21T23:31:15.212Z,2.67
2023-09-21T23:33:46.341Z,2.78
2023-09-21T23:36:16.629Z,3.40
2023-09-21T23:38:47.884Z,3.10
2023-09-21T23:41:18.032Z,3.53
2023-09-21T23:43:47.569Z,2.83
2023-09-21T23:46:17.819Z,2.72
2023-09-21T23:48:49.678Z,2.90
2023-09-21T23:51:19.304Z,2.65
2023-09-21T23:53:48.742Z,2.45
2023-09-21T23:56:21.729Z,2.72
2023-09-21T23:58:51.932Z,2.85
